createdAt,value
2023-04-03T00:11:43.801Z,101603.45
2023-04-03T00:19:19.691Z,101602.54
2023-04-03T00:26:57.511Z,101609.70
2023-04-03T00:30:48.118Z,101608.95
2023-04-03T00:34:36.226Z,101607.53
2023-04-03T00:38:25.404Z,101615.43
2023-04-03T00:42:14.602Z,101615.80
2023-04-03T00:46:12.462Z,101614.90
2023-04-03T00:50:01.667Z,101618.67
2023-04-03T00:53:50.795Z,101620.04
2023-04-03T00:57:28.998Z,101619.88
2023-04-03T01:01:18.350Z,101620.83
2023-04-03T01:05:13.137Z,101626.66
2023-04-03T01:09:02.349Z,101628.83
2023-04-03T01:12:54.264Z,101630.30
2023-04-03T01:16:42.052Z,101631.05
2023-04-03T01:20:30.095Z,101635.60
2023-04-03T01:24:24.743Z,101637.80
2023-04-03T01:28:13.947Z,101644.94
2023-04-03T01:43:52.983Z,101652.59
2023-04-03T01:47:40.825Z,101656.55
2023-04-03T01:51:29.879Z,101657.23
2023-04-03T01:55:11.893Z,101663.51
2023-04-03T01:59:01.004Z,101667.44
2023-04-03T02:02:50.245Z,101666.08
2023-04-03T02:06:39.391Z,101667.02
2023-04-03T02:10:28.570Z,101667.13
2023-04-03T02:14:17.831Z,101668.73
2023-04-03T02:18:07.770Z,101673.73
2023-04-03T02:21:56.374Z,101673.41
2023-04-03T02:25:45.774Z,101671.34
2023-04-03T02:29:34.822Z,101673.75
2023-04-03T02:33:23.900Z,101676.55
2023-04-03T02:37:13.006Z,101679.58
2023-04-03T02:40:54.678Z,101679.96
2023-04-03T02:44:43.768Z,101682.77
2023-04-03T02:48:32.709Z,101684.91
2023-04-03T02:52:21.802Z,101681.16
2023-04-03T02:56:03.840Z,101688.06
2023-04-03T02:59:45.966Z,101688.92
2023-04-03T03:03:24.887Z,101688.98
2023-04-03T03:07:13.981Z,101689.88
2023-04-03T03:10:46.951Z,101690.61
2023-04-03T03:14:35.818Z,101692.67
2023-04-03T03:18:24.986Z,101697.10
2023-04-03T03:22:11.513Z,101694.31
2023-04-03T03:25:53.993Z,101697.95
2023-04-03T03:29:43.127Z,101700.16
2023-04-03T03:33:32.244Z,101699.23
2023-04-03T03:37:21.518Z,101704.75
2023-04-03T03:41:10.889Z,101704.46
2023-04-03T03:44:59.995Z,101708.14
2023-04-03T03:48:49.084Z,101708.27
2023-04-03T03:52:37.386Z,101710.78
2023-04-03T03:56:26.509Z,101710.77
2023-04-03T04:00:05.696Z,101709.23
2023-04-03T04:03:55.208Z,101711.60
2023-04-03T04:07:44.405Z,101713.85
2023-04-03T04:11:32.377Z,101715.19
2023-04-03T04:15:14.470Z,101716.84
2023-04-03T04:19:03.657Z,101719.50
2023-04-03T04:22:53.040Z,101722.94
2023-04-03T04:26:42.302Z,101726.50
2023-04-03T04:30:25.020Z,101727.71
2023-04-03T04:34:14.291Z,101733.34
2023-04-03T04:38:03.464Z,101730.74
2023-04-03T04:41:52.633Z,101732.45
2023-04-03T04:45:41.735Z,101733.11
2023-04-03T04:49:30.875Z,101738.43
2023-04-03T04:53:20.001Z,101740.73
2023-04-03T04:57:01.963Z,101746.84
2023-04-03T05:00:51.623Z,101746.73
2023-04-03T05:04:40.797Z,101750.61
2023-04-03T05:08:29.959Z,101756.02
2023-04-03T05:12:19.032Z,101758.16
2023-04-03T05:16:08.432Z,101758.94
2023-04-03T05:19:57.989Z,101762.63
2023-04-03T05:23:22.586Z,101767.72
2023-04-03T05:26:32.238Z,101771.42
2023-04-03T05:29:54.367Z,101774.99
2023-04-03T05:33:43.618Z,101776.02
2023-04-03T05:37:06.796Z,101775.31
2023-04-03T05:40:49.116Z,101775.44
2023-04-03T05:44:20.674Z,101781.95
2023-04-03T05:47:51.720Z,101781.60
2023-04-03T05:51:17.241Z,101785.17
2023-04-03T05:55:07.725Z,101780.02
2023-04-03T05:58:39.737Z,101785.73
2023-04-03T06:01:48.415Z,101788.66
2023-04-03T06:05:12.711Z,101791.11
2023-04-03T06:08:35.514Z,101793.61
2023-04-03T06:12:24.726Z,101794.92
2023-04-03T06:16:12.668Z,101800.98
2023-04-03T06:19:55.717Z,101803.14
2023-04-03T06:23:38.607Z,101805.67
2023-04-03T06:27:20.400Z,101807.54
2023-04-03T06:30:50.030Z,101809.83
2023-04-03T06:34:30.507Z,101812.36
2023-04-03T06:38:10.957Z,101812.23
2023-04-03T06:41:44.622Z,101814.56
2023-04-03T06:44:56.357Z,101817.04
2023-04-03T06:48:22.098Z,101818.55
2023-04-03T06:52:09.106Z,101817.38
2023-04-03T06:55:33.900Z,101822.86
2023-04-03T06:59:07.002Z,101824.66
2023-04-03T07:02:30.281Z,101821.98
2023-04-03T07:05:55.057Z,101823.02
2023-04-03T07:09:24.525Z,101822.84
2023-04-03T07:13:00.980Z,101827.63
2023-04-03T07:16:38.745Z,101829.24
2023-04-03T07:20:20.243Z,101834.45
2023-04-03T07:23:40.013Z,101836.26
2023-04-03T07:27:04.202Z,101840.86
2023-04-03T07:30:04.524Z,101845.20
2023-04-03T07:33:13.961Z,101847.29
2023-04-03T07:36:46.068Z,101849.89
2023-04-03T07:40:09.398Z,101850.96
2023-04-03T07:43:53.242Z,101855.40
2023-04-03T07:47:33.584Z,101849.64
2023-04-03T07:50:34.875Z,101850.71
2023-04-03T07:54:04.807Z,101843.41
2023-04-03T07:57:53.635Z,101844.11
2023-04-03T08:01:00.528Z,101842.23
2023-04-03T08:04:16.470Z,101842.95
2023-04-03T08:07:27.790Z,101847.05
2023-04-03T08:10:52.905Z,101846.61
2023-04-03T08:14:35.235Z,101843.41
2023-04-03T08:17:34.837Z,101844.98
2023-04-03T08:20:46.620Z,101845.65
2023-04-03T08:23:40.893Z,101843.19
2023-04-03T08:26:59.046Z,101846.20
2023-04-03T08:30:29.263Z,101846.40
2023-04-03T08:33:59.181Z,101846.88
2023-04-03T08:36:55.208Z,101845.92
2023-04-03T08:40:17.449Z,101847.75
2023-04-03T08:43:31.508Z,101841.02
2023-04-03T08:46:44.108Z,101842.55
2023-04-03T08:49:53.220Z,101843.83
2023-04-03T08:53:14.382Z,101841.27
2023-04-03T08:56:11.309Z,101844.02
2023-04-03T08:59:22.485Z,101845.16
2023-04-03T09:02:46.360Z,101843.30
2023-04-03T09:05:44.430Z,101832.58
2023-04-03T09:08:59.505Z,101844.05
2023-04-03T09:12:14.266Z,101848.80
2023-04-03T09:15:42.490Z,101846.98
2023-04-03T09:18:41.953Z,101838.73
2023-04-03T09:21:44.427Z,101844.86
2023-04-03T09:25:10.081Z,101842.98
2023-04-03T09:27:59.522Z,101845.42
2023-04-03T09:31:20.054Z,101839.55
2023-04-03T09:34:28.908Z,101842.98
2023-04-03T09:38:00.192Z,101835.23
2023-04-03T09:41:03.876Z,101835.87
2023-04-03T09:44:02.502Z,101837.23
2023-04-03T09:47:12.102Z,101840.27
2023-04-03T09:50:57.816Z,101846.18
2023-04-03T09:53:54.967Z,101834.50
2023-04-03T09:56:51.110Z,101838.20
2023-04-03T09:59:36.263Z,101837.33
2023-04-03T10:03:03.985Z,101829.30
2023-04-03T10:06:11.015Z,101835.86
2023-04-03T10:09:05.714Z,101835.80
2023-04-03T10:12:15.634Z,101830.58
2023-04-03T10:15:21.038Z,101838.05
2023-04-03T10:18:34.323Z,101835.73
2023-04-03T10:21:46.741Z,101837.45
2023-04-03T10:25:17.580Z,101830.00
2023-04-03T10:28:22.613Z,101824.66
2023-04-03T10:31:16.750Z,101832.81
2023-04-03T10:34:30.845Z,101829.32
2023-04-03T10:37:50.831Z,101830.13
2023-04-03T10:40:35.448Z,101834.41
2023-04-03T10:43:49.352Z,101833.67
2023-04-03T10:46:37.990Z,101832.71
2023-04-03T10:49:57.206Z,101829.64
2023-04-03T10:52:57.172Z,101824.20
2023-04-03T10:56:16.545Z,101807.96
2023-04-03T10:59:25.796Z,101818.16
2023-04-03T11:02:52.591Z,101821.14
2023-04-03T11:05:56.638Z,101823.80
2023-04-03T11:09:06.839Z,101821.71
2023-04-03T11:12:12.448Z,101816.84
2023-04-03T11:15:34.284Z,101816.52
2023-04-03T11:18:46.107Z,101803.98
2023-04-03T11:21:32.469Z,101798.90
2023-04-03T11:24:50.520Z,101794.51
2023-04-03T11:27:53.094Z,101805.06
2023-04-03T11:31:05.546Z,101804.63
2023-04-03T11:34:50.098Z,101806.59
2023-04-03T11:37:56.633Z,101796.78
2023-04-03T11:40:47.342Z,101795.61
2023-04-03T11:43:38.249Z,101784.42
2023-04-03T11:46:59.498Z,101779.48
2023-04-03T11:50:22.303Z,101778.00
2023-04-03T11:53:02.050Z,101775.04
2023-04-03T11:55:49.371Z,101779.80
2023-04-03T11:58:58.198Z,101782.67
2023-04-03T12:02:05.700Z,101786.95
2023-04-03T12:05:14.614Z,101784.77
2023-04-03T12:08:25.362Z,101783.91
2023-04-03T12:11:29.804Z,101778.98
2023-04-03T12:14:18.460Z,101780.02
2023-04-03T12:17:18.985Z,101780.30
2023-04-03T12:20:33.442Z,101774.14
2023-04-03T12:23:46.978Z,101773.95
2023-04-03T12:26:38.421Z,101771.22
2023-04-03T12:29:43.910Z,101771.17
2023-04-03T12:32:50.582Z,101764.13
2023-04-03T12:35:35.239Z,101763.48
2023-04-03T12:38:47.076Z,101763.27
2023-04-03T12:41:59.082Z,101769.80
2023-04-03T12:44:54.282Z,101768.84
2023-04-03T12:47:37.438Z,101760.64
2023-04-03T12:50:45.612Z,101762.42
2023-04-03T12:53:44.104Z,101772.05
2023-04-03T12:56:56.928Z,101767.19
2023-04-03T12:59:54.348Z,101762.33
2023-04-03T13:02:52.430Z,101754.05
2023-04-03T13:05:52.465Z,101754.86
2023-04-03T13:08:51.564Z,101761.30
2023-04-03T13:11:34.185Z,101759.75
2023-04-03T13:14:31.762Z,101761.91
2023-04-03T13:17:10.838Z,101764.60
2023-04-03T13:19:49.297Z,101762.23
2023-04-03T13:22:28.884Z,101754.48
2023-04-03T13:25:15.315Z,101757.48
2023-04-03T13:28:00.384Z,101758.84
2023-04-03T13:30:42.224Z,101764.67
2023-04-03T13:33:41.280Z,101761.38
2023-04-03T13:36:31.977Z,101761.80
2023-04-03T13:39:17.320Z,101759.08
2023-04-03T13:42:00.167Z,101751.99
2023-04-03T13:44:39.394Z,101748.45
2023-04-03T13:47:25.717Z,101744.37
2023-04-03T13:50:22.220Z,101739.40
2023-04-03T13:53:11.492Z,101740.37
2023-04-03T13:56:17.588Z,101739.17
2023-04-03T13:59:17.425Z,101740.17
2023-04-03T14:02:27.559Z,101743.17
2023-04-03T14:05:19.464Z,101744.80
2023-04-03T14:08:42.228Z,101745.60
2023-04-03T14:11:41.092Z,101747.99
2023-04-03T14:14:40.189Z,101749.78
2023-04-03T14:17:55.720Z,101752.35
2023-04-03T14:20:58.351Z,101755.61
2023-04-03T14:23:59.907Z,101758.14
2023-04-03T14:27:07.913Z,101758.38
2023-04-03T14:30:22.366Z,101760.33
2023-04-03T14:33:41.953Z,101761.59
2023-04-03T14:37:03.727Z,101760.89
2023-04-03T14:40:41.890Z,101764.17
2023-04-03T14:43:48.353Z,101761.39
2023-04-03T14:47:02.264Z,101757.40
2023-04-03T14:50:20.239Z,101757.73
2023-04-03T14:53:38.692Z,101755.65
2023-04-03T14:56:46.696Z,101754.63
2023-04-03T15:00:05.616Z,101756.20
2023-04-03T15:03:46.498Z,101754.45
2023-04-03T15:07:06.316Z,101752.17
2023-04-03T15:10:44.431Z,101750.26
2023-04-03T15:13:48.441Z,101748.55
2023-04-03T15:16:53.782Z,101745.77
2023-04-03T15:20:01.187Z,101749.41
2023-04-03T15:23:27.614Z,101744.55
2023-04-03T15:27:00.606Z,101746.80
2023-04-03T15:30:16.422Z,101746.26
2023-04-03T15:33:51.700Z,101747.25
2023-04-03T15:37:26.060Z,101744.79
2023-04-03T15:40:52.925Z,101746.65
2023-04-03T15:44:21.083Z,101743.90
2023-04-03T15:47:50.335Z,101745.45
2023-04-03T15:51:30.102Z,101749.39
2023-04-03T15:55:01.286Z,101748.27
2023-04-03T15:58:50.388Z,101749.09
2023-04-03T16:02:29.185Z,101748.16
2023-04-03T16:05:49.066Z,101745.33
2023-04-03T16:09:31.180Z,101751.55
2023-04-03T16:13:07.956Z,101750.11
2023-04-03T16:16:49.961Z,101751.26
2023-04-03T16:20:07.584Z,101752.23
2023-04-03T16:23:55.582Z,101753.39
2023-04-03T16:27:27.798Z,101758.71
2023-04-03T16:30:57.911Z,101760.01
2023-04-03T16:34:37.569Z,101765.81
2023-04-03T16:38:25.308Z,101772.11
2023-04-03T16:42:05.450Z,101774.83
2023-04-03T16:45:54.472Z,101774.07
2023-04-03T16:49:43.747Z,101772.40
2023-04-03T16:53:21.737Z,101775.95
2023-04-03T16:57:10.861Z,101780.22
2023-04-03T17:01:00.142Z,101778.97
2023-04-03T17:04:42.269Z,101782.02
2023-04-03T17:08:24.149Z,101783.38
2023-04-03T17:12:12.423Z,101786.60
2023-04-03T17:16:01.534Z,101786.52
2023-04-03T17:19:50.749Z,101787.70
2023-04-03T17:23:22.522Z,101790.88
2023-04-03T17:26:50.255Z,101796.14
2023-04-03T17:30:39.335Z,101796.94
2023-04-03T17:34:28.517Z,101799.32
2023-04-03T17:38:07.828Z,101798.20
2023-04-03T17:41:57.437Z,101801.96
2023-04-03T17:45:46.859Z,101799.65
2023-04-03T17:49:18.935Z,101801.16
2023-04-03T17:53:08.071Z,101801.63
2023-04-03T17:56:57.176Z,101802.77
2023-04-03T18:00:46.609Z,101803.42
2023-04-03T18:04:23.049Z,101800.98
2023-04-03T18:08:05.383Z,101802.86
2023-04-03T18:11:54.557Z,101802.16
2023-04-03T18:15:43.826Z,101805.07
2023-04-03T18:19:33.061Z,101800.73
2023-04-03T18:23:13.781Z,101800.71
2023-04-03T18:27:01.640Z,101800.88
2023-04-03T18:30:39.929Z,101803.98
2023-04-03T18:34:29.297Z,101809.12
2023-04-03T18:38:08.946Z,101811.50
2023-04-03T18:41:56.854Z,101809.05
2023-04-03T18:45:38.595Z,101811.80
2023-04-03T18:49:21.013Z,101815.95
2023-04-03T18:53:03.432Z,101814.82
2023-04-03T18:56:51.350Z,101811.30
2023-04-03T19:00:35.397Z,101807.83
2023-04-03T19:04:24.480Z,101801.76
2023-04-03T19:08:13.583Z,101800.50
2023-04-03T19:11:55.028Z,101801.70
2023-04-03T19:15:43.889Z,101803.05
2023-04-03T19:19:12.808Z,101799.41
2023-04-03T19:23:01.962Z,101804.23
2023-04-03T19:27:00.242Z,101800.92
2023-04-03T19:30:49.614Z,101799.49
2023-04-03T19:34:31.776Z,101801.86
2023-04-03T19:38:20.991Z,101798.90
2023-04-03T19:42:06.891Z,101795.20
2023-04-03T19:45:56.297Z,101796.38
2023-04-03T19:49:39.185Z,101803.48
2023-04-03T19:53:26.323Z,101800.55
2023-04-03T19:57:15.551Z,101801.41
2023-04-03T20:00:46.828Z,101803.77
2023-04-03T20:04:29.593Z,101804.73
2023-04-03T20:08:18.788Z,101807.11
2023-04-03T20:12:07.478Z,101803.10
2023-04-03T20:15:56.862Z,101803.71
2023-04-03T20:19:21.874Z,101800.38
2023-04-03T20:23:10.011Z,101801.36
2023-04-03T20:26:59.481Z,101801.47
2023-04-03T20:30:49.680Z,101800.23
2023-04-03T20:34:38.464Z,101798.13
2023-04-03T20:38:21.362Z,101796.38
2023-04-03T20:49:46.728Z,101796.32
2023-04-03T20:57:15.069Z,101796.12
2023-04-03T21:16:05.553Z,101795.77
2023-04-03T21:27:26.361Z,101800.11
2023-04-03T21:31:13.248Z,101799.38
2023-04-03T21:57:58.680Z,101805.52
2023-04-03T22:01:50.228Z,101806.23
2023-04-03T22:05:37.377Z,101806.20
2023-04-03T22:09:26.020Z,101801.03
2023-04-03T22:13:02.293Z,101800.48
2023-04-03T22:16:31.951Z,101799.97
2023-04-03T22:20:19.842Z,101803.38
2023-04-03T22:23:59.078Z,101806.48
2023-04-03T22:27:36.574Z,101808.88
2023-04-03T22:31:08.544Z,101806.73
2023-04-03T22:34:37.636Z,101810.45
2023-04-03T22:38:26.667Z,101816.11
2023-04-03T22:42:14.982Z,101816.52
2023-04-03T22:45:58.499Z,101816.30
2023-04-03T22:49:47.254Z,101821.80
2023-04-03T22:53:28.669Z,101819.64
2023-04-03T22:57:17.821Z,101819.08
2023-04-03T23:01:07.568Z,101817.33
2023-04-03T23:04:48.877Z,101821.23
2023-04-03T23:08:37.235Z,101816.73
2023-04-03T23:12:26.508Z,101817.03
2023-04-03T23:16:01.151Z,101817.62
2023-04-03T23:19:41.704Z,101816.58
2023-04-03T23:23:32.163Z,101818.45
2023-04-03T23:27:22.606Z,101812.54
2023-04-03T23:30:58.361Z,101815.98
2023-04-03T23:34:47.736Z,101813.67
2023-04-03T23:38:35.782Z,101815.16
2023-04-03T23:42:12.153Z,101814.08
2023-04-03T23:45:36.749Z,101813.02
2023-04-03T23:49:26.044Z,101811.08
2023-04-03T23:53:15.190Z,101812.42
2023-04-03T23:57:04.377Z,101813.25
